sensor_id;sensor_type;location;lat;lon;timestamp;pressure;altitude;pressure_sealevel;temperature;humidity
50011;BME280;35899;50.352;19.390;2022-10-13T00:01:09;98643.73;;;4.23;77.47
50011;BME280;35899;50.352;19.390;2022-10-13T00:03:39;98642.03;;;4.22;77.44
50011;BME280;35899;50.352;19.390;2022-10-13T00:06:09;98642.45;;;4.23;77.58
50011;BME280;35899;50.352;19.390;2022-10-13T00:08:37;98644.56;;;4.24;77.57
50011;BME280;35899;50.352;19.390;2022-10-13T00:11:11;98641.95;;;4.25;77.66
50011;BME280;35899;50.352;19.390;2022-10-13T00:13:44;98634.23;;;4.25;77.73
50011;BME280;35899;50.352;19.390;2022-10-13T00:16:13;98638.09;;;4.25;77.73
50011;BME280;35899;50.352;19.390;2022-10-13T00:18:41;98636.40;;;4.24;77.70
50011;BME280;35899;50.352;19.390;2022-10-13T00:21:11;98637.80;;;4.21;77.75
50011;BME280;35899;50.352;19.390;2022-10-13T00:23:40;98638.30;;;4.19;77.75
50011;BME280;35899;50.352;19.390;2022-10-13T00:26:09;98634.08;;;4.17;77.90
50011;BME280;35899;50.352;19.390;2022-10-13T00:28:39;98629.81;;;4.17;77.95
50011;BME280;35899;50.352;19.390;2022-10-13T00:31:24;98631.92;;;4.18;78.13
50011;BME280;35899;50.352;19.390;2022-10-13T00:33:53;98629.40;;;4.16;78.16
50011;BME280;35899;50.352;19.390;2022-10-13T00:36:21;98630.30;;;4.15;78.25
50011;BME280;35899;50.352;19.390;2022-10-13T00:38:50;98622.19;;;4.14;78.33
50011;BME280;35899;50.352;19.390;2022-10-13T00:41:18;98627.83;;;4.12;78.31
50011;BME280;35899;50.352;19.390;2022-10-13T00:44:01;98626.12;;;4.11;78.29
50011;BME280;35899;50.352;19.390;2022-10-13T00:46:32;98622.77;;;4.09;78.46
50011;BME280;35899;50.352;19.390;2022-10-13T00:51:39;98615.06;;;4.09;78.66
50011;BME280;35899;50.352;19.390;2022-10-13T00:54:12;98612.13;;;4.08;78.70
50011;BME280;35899;50.352;19.390;2022-10-13T00:56:40;98612.50;;;4.09;78.65
50011;BME280;35899;50.352;19.390;2022-10-13T00:59:14;98606.16;;;4.07;78.71
50011;BME280;35899;50.352;19.390;2022-10-13T01:01:44;98607.48;;;4.06;78.63
50011;BME280;35899;50.352;19.390;2022-10-13T01:04:11;98603.67;;;4.04;78.68
50011;BME280;35899;50.352;19.390;2022-10-13T01:06:39;98607.07;;;4.05;78.71
50011;BME280;35899;50.352;19.390;2022-10-13T01:09:07;98610.92;;;4.05;78.83
50011;BME280;35899;50.352;19.390;2022-10-13T01:11:42;98609.64;;;4.05;78.88
50011;BME280;35899;50.352;19.390;2022-10-13T01:14:27;98607.11;;;4.03;78.94
50011;BME280;35899;50.352;19.390;2022-10-13T01:31:02;98596.10;;;3.86;79.32
50011;BME280;35899;50.352;19.390;2022-10-13T01:36:54;98591.87;;;3.85;79.59
50011;BME280;35899;50.352;19.390;2022-10-13T01:39:34;98593.20;;;3.84;79.76
50011;BME280;35899;50.352;19.390;2022-10-13T01:42:08;98586.82;;;3.82;79.77
50011;BME280;35899;50.352;19.390;2022-10-13T01:44:41;98582.19;;;3.80;79.80
50011;BME280;35899;50.352;19.390;2022-10-13T01:47:13;98583.92;;;3.80;79.88
50011;BME280;35899;50.352;19.390;2022-10-13T01:49:42;98582.22;;;3.79;79.92
50011;BME280;35899;50.352;19.390;2022-10-13T01:52:15;98584.00;;;3.77;79.91
50011;BME280;35899;50.352;19.390;2022-10-13T01:54:48;98578.53;;;3.74;80.00
50011;BME280;35899;50.352;19.390;2022-10-13T02:00:04;98570.92;;;3.71;79.93
50011;BME280;35899;50.352;19.390;2022-10-13T02:03:16;98573.94;;;3.70;80.00
50011;BME280;35899;50.352;19.390;2022-10-13T02:05:46;98565.28;;;3.73;80.29
50011;BME280;35899;50.352;19.390;2022-10-13T02:08:38;98563.96;;;3.75;80.39
50011;BME280;35899;50.352;19.390;2022-10-13T02:11:18;98563.53;;;3.75;80.43
50011;BME280;35899;50.352;19.390;2022-10-13T02:19:03;98565.86;;;3.69;80.49
50011;BME280;35899;50.352;19.390;2022-10-13T02:21:32;98561.59;;;3.68;80.57
50011;BME280;35899;50.352;19.390;2022-10-13T02:24:02;98547.14;;;3.66;80.44
50011;BME280;35899;50.352;19.390;2022-10-13T02:26:31;98539.94;;;3.64;80.73
50011;BME280;35899;50.352;19.390;2022-10-13T02:29:12;98545.86;;;3.66;81.02
50011;BME280;35899;50.352;19.390;2022-10-13T02:31:42;98545.73;;;3.69;81.03
50011;BME280;35899;50.352;19.390;2022-10-13T02:34:09;98540.11;;;3.71;80.97
50011;BME280;35899;50.352;19.390;2022-10-13T02:36:38;98543.09;;;3.72;80.99
50011;BME280;35899;50.352;19.390;2022-10-13T02:39:07;98540.52;;;3.72;80.86
50011;BME280;35899;50.352;19.390;2022-10-13T02:41:35;98548.59;;;3.73;80.91
50011;BME280;35899;50.352;19.390;2022-10-13T02:44:02;98549.05;;;3.72;80.91
50011;BME280;35899;50.352;19.390;2022-10-13T02:46:31;98545.24;;;3.71;80.92
50011;BME280;35899;50.352;19.390;2022-10-13T02:48:58;98541.89;;;3.69;80.88
50011;BME280;35899;50.352;19.390;2022-10-13T02:51:27;98544.95;;;3.67;80.93
50011;BME280;35899;50.352;19.390;2022-10-13T02:53:54;98542.50;;;3.64;80.89
50011;BME280;35899;50.352;19.390;2022-10-13T02:56:21;98537.00;;;3.61;80.94
50011;BME280;35899;50.352;19.390;2022-10-13T02:58:48;98542.63;;;3.59;80.98
50011;BME280;35899;50.352;19.390;2022-10-13T03:01:15;98535.38;;;3.59;81.04
50011;BME280;35899;50.352;19.390;2022-10-13T03:03:42;98530.75;;;3.57;80.96
50011;BME280;35899;50.352;19.390;2022-10-13T03:06:10;98536.80;;;3.54;81.04
50011;BME280;35899;50.352;19.390;2022-10-13T03:08:37;98532.16;;;3.52;81.18
50011;BME280;35899;50.352;19.390;2022-10-13T03:11:04;98537.29;;;3.52;81.36
50011;BME280;35899;50.352;19.390;2022-10-13T03:13:31;98537.37;;;3.50;81.38
50011;BME280;35899;50.352;19.390;2022-10-13T03:16:00;98539.98;;;3.49;81.43
50011;BME280;35899;50.352;19.390;2022-10-13T03:18:27;98543.00;;;3.48;81.41
50011;BME280;35899;50.352;19.390;2022-10-13T03:20:56;98537.00;;;3.48;81.46
50011;BME280;35899;50.352;19.390;2022-10-13T03:23:25;98534.55;;;3.45;81.51
50011;BME280;35899;50.352;19.390;2022-10-13T03:25:53;98535.38;;;3.45;81.60
50011;BME280;35899;50.352;19.390;2022-10-13T03:28:20;98535.88;;;3.43;81.58
50011;BME280;35899;50.352;19.390;2022-10-13T03:30:49;98535.09;;;3.41;81.59
50011;BME280;35899;50.352;19.390;2022-10-13T03:33:17;98537.66;;;3.41;81.74
50011;BME280;35899;50.352;19.390;2022-10-13T03:35:44;98537.24;;;3.40;81.80
50011;BME280;35899;50.352;19.390;2022-10-13T03:38:11;98542.83;;;3.40;81.97
50011;BME280;35899;50.352;19.390;2022-10-13T03:40:38;98533.84;;;3.40;82.08
50011;BME280;35899;50.352;19.390;2022-10-13T03:43:05;98534.67;;;3.40;82.12
50011;BME280;35899;50.352;19.390;2022-10-13T03:45:32;98535.96;;;3.40;82.21
50011;BME280;35899;50.352;19.390;2022-10-13T03:47:59;98534.67;;;3.40;82.29
50011;BME280;35899;50.352;19.390;2022-10-13T03:50:27;98535.58;;;3.39;82.54
50011;BME280;35899;50.352;19.390;2022-10-13T03:52:54;98539.43;;;3.39;82.56
50011;BME280;35899;50.352;19.390;2022-10-13T03:55:21;98533.02;;;3.39;82.57
50011;BME280;35899;50.352;19.390;2022-10-13T03:57:48;98532.16;;;3.39;82.61
50011;BME280;35899;50.352;19.390;2022-10-13T04:00:15;98529.59;;;3.39;82.58
50011;BME280;35899;50.352;19.390;2022-10-13T04:02:42;98528.38;;;3.37;82.67
50011;BME280;35899;50.352;19.390;2022-10-13T04:05:09;98526.23;;;3.37;82.70
50011;BME280;35899;50.352;19.390;2022-10-13T04:07:36;98523.33;;;3.34;82.76
50011;BME280;35899;50.352;19.390;2022-10-13T04:10:06;98523.33;;;3.34;82.81
50011;BME280;35899;50.352;19.390;2022-10-13T04:12:33;98524.20;;;3.33;82.83
50011;BME280;35899;50.352;19.390;2022-10-13T04:15:00;98519.97;;;3.32;82.90
50011;BME280;35899;50.352;19.390;2022-10-13T04:17:27;98521.64;;;3.33;82.85
50011;BME280;35899;50.352;19.390;2022-10-13T04:19:54;98521.30;;;3.30;82.85
50011;BME280;35899;50.352;19.390;2022-10-13T04:22:21;98517.91;;;3.30;83.02
50011;BME280;35899;50.352;19.390;2022-10-13T04:24:48;98517.91;;;3.30;83.09
50011;BME280;35899;50.352;19.390;2022-10-13T04:27:15;98515.78;;;3.29;83.12
50011;BME280;35899;50.352;19.390;2022-10-13T04:29:44;98520.05;;;3.29;83.07
50011;BME280;35899;50.352;19.390;2022-10-13T04:32:11;98520.96;;;3.28;83.21
50011;BME280;35899;50.352;19.390;2022-10-13T04:34:38;98524.36;;;3.28;83.33
50011;BME280;35899;50.352;19.390;2022-10-13T04:37:05;98516.70;;;3.27;83.40
50011;BME280;35899;50.352;19.390;2022-10-13T04:39:32;98524.40;;;3.27;83.43
50011;BME280;35899;50.352;19.390;2022-10-13T04:41:59;98522.28;;;3.26;83.50
50011;BME280;35899;50.352;19.390;2022-10-13T04:44:27;98521.45;;;3.26;83.49
50011;BME280;35899;50.352;19.390;2022-10-13T04:46:54;98524.84;;;3.26;83.56
50011;BME280;35899;50.352;19.390;2022-10-13T04:49:21;98521.45;;;3.26;83.60
50011;BME280;35899;50.352;19.390;2022-10-13T04:51:48;98522.25;;;3.28;83.64
50011;BME280;35899;50.352;19.390;2022-10-13T04:54:15;98517.98;;;3.27;83.54
50011;BME280;35899;50.352;19.390;2022-10-13T04:56:45;98508.97;;;3.28;83.60
50011;BME280;35899;50.352;19.390;2022-10-13T04:59:12;98516.21;;;3.29;83.69
50011;BME280;35899;50.352;19.390;2022-10-13T05:01:40;98517.91;;;3.30;83.78
50011;BME280;35899;50.352;19.390;2022-10-13T05:04:08;98521.30;;;3.30;83.83
50011;BME280;35899;50.352;19.390;2022-10-13T05:06:39;98522.13;;;3.31;83.86
50011;BME280;35899;50.352;19.390;2022-10-13T05:09:09;98517.00;;;3.31;83.83
50011;BME280;35899;50.352;19.390;2022-10-13T05:11:39;98516.58;;;3.31;83.65
50011;BME280;35899;50.352;19.390;2022-10-13T05:14:06;98518.23;;;3.32;83.67
50011;BME280;35899;50.352;19.390;2022-10-13T05:16:33;98510.50;;;3.34;83.67
50011;BME280;35899;50.352;19.390;2022-10-13T05:19:00;98512.53;;;3.38;83.80
50011;BME280;35899;50.352;19.390;2022-10-13T05:21:28;98514.89;;;3.44;83.88
50011;BME280;35899;50.352;19.390;2022-10-13T05:23:56;98516.88;;;3.49;83.99
50011;BME280;35899;50.352;19.390;2022-10-13T05:26:26;98514.56;;;3.55;84.06
50011;BME280;35899;50.352;19.390;2022-10-13T05:28:58;98519.48;;;3.61;84.06
50011;BME280;35899;50.352;19.390;2022-10-13T05:31:29;98519.23;;;3.68;84.11
50011;BME280;35899;50.352;19.390;2022-10-13T05:33:58;98516.83;;;3.77;84.11
50011;BME280;35899;50.352;19.390;2022-10-13T05:36:32;98521.75;;;3.83;84.13
50011;BME280;35899;50.352;19.390;2022-10-13T05:39:01;98526.58;;;3.93;84.11
50011;BME280;35899;50.352;19.390;2022-10-13T05:41:30;98526.27;;;4.02;84.19
50011;BME280;35899;50.352;19.390;2022-10-13T05:43:59;98528.50;;;4.11;84.19
50011;BME280;35899;50.352;19.390;2022-10-13T05:46:28;98531.17;;;4.21;84.17
50011;BME280;35899;50.352;19.390;2022-10-13T05:48:55;98532.97;;;4.31;84.12
50011;BME280;35899;50.352;19.390;2022-10-13T05:51:35;98537.66;;;4.43;84.04
50011;BME280;35899;50.352;19.390;2022-10-13T05:54:16;98538.16;;;4.53;84.00
50011;BME280;35899;50.352;19.390;2022-10-13T05:56:55;98537.78;;;4.64;83.71
50011;BME280;35899;50.352;19.390;2022-10-13T05:59:26;98539.58;;;4.74;83.50
50011;BME280;35899;50.352;19.390;2022-10-13T06:01:55;98537.91;;;4.84;83.32
50011;BME280;35899;50.352;19.390;2022-10-13T06:04:30;98531.59;;;4.93;83.06
50011;BME280;35899;50.352;19.390;2022-10-13T06:07:07;98533.36;;;5.03;82.93
50011;BME280;35899;50.352;19.390;2022-10-13T06:09:37;98533.84;;;5.13;82.81
50011;BME280;35899;50.352;19.390;2022-10-13T06:12:05;98532.58;;;5.23;82.81
50011;BME280;35899;50.352;19.390;2022-10-13T06:14:33;98530.06;;;5.33;82.77
50011;BME280;35899;50.352;19.390;2022-10-13T06:17:03;98529.61;;;5.44;82.73
50011;BME280;35899;50.352;19.390;2022-10-13T06:19:30;98521.53;;;5.53;82.66
50011;BME280;35899;50.352;19.390;2022-10-13T06:21:58;98520.59;;;5.66;82.65
50011;BME280;35899;50.352;19.390;2022-10-13T06:24:25;98514.61;;;5.76;82.68
50011;BME280;35899;50.352;19.390;2022-10-13T06:26:52;98514.60;;;5.86;82.65
50011;BME280;35899;50.352;19.390;2022-10-13T06:29:20;98513.39;;;5.95;82.50
50011;BME280;35899;50.352;19.390;2022-10-13T06:31:46;98518.20;;;6.04;82.29
50011;BME280;35899;50.352;19.390;2022-10-13T06:34:14;98516.64;;;6.10;82.25
50011;BME280;35899;50.352;19.390;2022-10-13T06:36:43;98517.91;;;6.20;82.32
50011;BME280;35899;50.352;19.390;2022-10-13T06:39:11;98520.09;;;6.30;82.22
50011;BME280;35899;50.352;19.390;2022-10-13T06:41:38;98521.11;;;6.36;81.97
50011;BME280;35899;50.352;19.390;2022-10-13T06:44:05;98519.64;;;6.40;81.87
50011;BME280;35899;50.352;19.390;2022-10-13T06:46:32;98517.55;;;6.49;82.07
50011;BME280;35899;50.352;19.390;2022-10-13T06:48:59;98518.84;;;6.59;82.15
50011;BME280;35899;50.352;19.390;2022-10-13T06:51:27;98512.41;;;6.68;82.26
50011;BME280;35899;50.352;19.390;2022-10-13T06:53:55;98515.05;;;6.76;82.27
50011;BME280;35899;50.352;19.390;2022-10-13T06:56:24;98510.30;;;6.86;82.30
50011;BME280;35899;50.352;19.390;2022-10-13T06:58:51;98504.19;;;6.97;82.38
50011;BME280;35899;50.352;19.390;2022-10-13T07:01:18;98500.27;;;7.08;82.32
50011;BME280;35899;50.352;19.390;2022-10-13T07:03:50;98497.19;;;7.18;82.24
50011;BME280;35899;50.352;19.390;2022-10-13T07:06:19;98497.19;;;7.27;82.05
50011;BME280;35899;50.352;19.390;2022-10-13T07:08:46;98496.32;;;7.37;81.94
50011;BME280;35899;50.352;19.390;2022-10-13T07:11:15;98504.36;;;7.48;82.07
50011;BME280;35899;50.352;19.390;2022-10-13T07:13:43;98498.45;;;7.55;81.72
50011;BME280;35899;50.352;19.390;2022-10-13T07:16:12;98499.66;;;7.65;81.84
50011;BME280;35899;50.352;19.390;2022-10-13T07:18:39;98500.91;;;7.75;81.77
50011;BME280;35899;50.352;19.390;2022-10-13T07:21:06;98495.18;;;7.86;81.92
50011;BME280;35899;50.352;19.390;2022-10-13T07:23:33;98494.72;;;7.95;81.93
50011;BME280;35899;50.352;19.390;2022-10-13T07:26:08;98492.75;;;8.09;81.82
50011;BME280;35899;50.352;19.390;2022-10-13T07:28:36;98492.94;;;8.22;81.86
50011;BME280;35899;50.352;19.390;2022-10-13T07:33:44;98501.36;;;8.43;81.38
50011;BME280;35899;50.352;19.390;2022-10-13T07:36:15;98496.47;;;8.54;81.32
50011;BME280;35899;50.352;19.390;2022-10-13T07:38:42;98491.95;;;8.67;81.31
50011;BME280;35899;50.352;19.390;2022-10-13T07:41:10;98489.63;;;8.78;81.41
50011;BME280;35899;50.352;19.390;2022-10-13T07:43:38;98489.77;;;8.91;81.19
50011;BME280;35899;50.352;19.390;2022-10-13T07:46:06;98483.19;;;9.01;81.16
50011;BME280;35899;50.352;19.390;2022-10-13T07:48:33;98475.59;;;9.14;80.61
50011;BME280;35899;50.352;19.390;2022-10-13T07:51:04;98481.37;;;9.26;80.15
50011;BME280;35899;50.352;19.390;2022-10-13T07:53:33;98477.05;;;9.34;79.81
50011;BME280;35899;50.352;19.390;2022-10-13T07:56:03;98473.86;;;9.45;79.84
50011;BME280;35899;50.352;19.390;2022-10-13T07:58:31;98471.11;;;9.55;79.70
50011;BME280;35899;50.352;19.390;2022-10-13T08:01:00;98471.33;;;9.66;79.35
50011;BME280;35899;50.352;19.390;2022-10-13T08:03:29;98470.80;;;9.75;79.29
50011;BME280;35899;50.352;19.390;2022-10-13T08:05:59;98464.14;;;9.86;79.18
50011;BME280;35899;50.352;19.390;2022-10-13T08:08:27;98470.64;;;9.93;78.84
50011;BME280;35899;50.352;19.390;2022-10-13T08:10:54;98473.05;;;10.03;78.53
50011;BME280;35899;50.352;19.390;2022-10-13T08:13:27;98466.77;;;10.14;78.58
50011;BME280;35899;50.352;19.390;2022-10-13T08:15:54;98461.33;;;10.26;78.87
50011;BME280;35899;50.352;19.390;2022-10-13T08:18:22;98461.81;;;10.40;78.79
50011;BME280;35899;50.352;19.390;2022-10-13T08:20:49;98464.03;;;10.53;78.69
50011;BME280;35899;50.352;19.390;2022-10-13T08:23:17;98459.48;;;10.64;78.48
50011;BME280;35899;50.352;19.390;2022-10-13T08:25:46;98457.15;;;10.74;78.40
50011;BME280;35899;50.352;19.390;2022-10-13T08:30:48;98446.52;;;10.99;78.25
50011;BME280;35899;50.352;19.390;2022-10-13T08:33:16;98448.31;;;11.11;77.79
50011;BME280;35899;50.352;19.390;2022-10-13T08:35:44;98450.02;;;11.25;77.57
50011;BME280;35899;50.352;19.390;2022-10-13T08:38:11;98446.48;;;11.33;76.80
50011;BME280;35899;50.352;19.390;2022-10-13T08:40:39;98442.33;;;11.43;76.83
50011;BME280;35899;50.352;19.390;2022-10-13T08:43:07;98446.84;;;11.54;76.75
50011;BME280;35899;50.352;19.390;2022-10-13T08:45:36;98441.77;;;11.65;76.75
50011;BME280;35899;50.352;19.390;2022-10-13T08:48:13;98442.33;;;11.76;76.42
50011;BME280;35899;50.352;19.390;2022-10-13T08:56:19;98433.01;;;12.12;76.26
50011;BME280;35899;50.352;19.390;2022-10-13T08:58:55;98434.88;;;12.23;75.42
50011;BME280;35899;50.352;19.390;2022-10-13T09:01:31;98437.69;;;12.32;75.48
50011;BME280;35899;50.352;19.390;2022-10-13T09:09:42;98432.97;;;12.69;74.73
50011;BME280;35899;50.352;19.390;2022-10-13T09:12:11;98433.42;;;12.81;74.10
50011;BME280;35899;50.352;19.390;2022-10-13T09:14:40;98430.84;;;12.93;74.17
50011;BME280;35899;50.352;19.390;2022-10-13T09:17:19;98428.28;;;13.22;72.96
50011;BME280;35899;50.352;19.390;2022-10-13T09:22:33;98426.27;;;14.14;72.08
50011;BME280;35899;50.352;19.390;2022-10-13T09:25:18;98422.71;;;14.65;71.10
50011;BME280;35899;50.352;19.390;2022-10-13T09:30:39;98420.56;;;15.73;69.42
50011;BME280;35899;50.352;19.390;2022-10-13T09:35:43;98414.05;;;16.60;66.34
50011;BME280;35899;50.352;19.390;2022-10-13T09:38:17;98412.79;;;17.14;66.00
50011;BME280;35899;50.352;19.390;2022-10-13T09:43:55;98411.34;;;17.98;62.54
50011;BME280;35899;50.352;19.390;2022-10-13T09:46:33;98406.91;;;18.50;61.64
50011;BME280;35899;50.352;19.390;2022-10-13T09:49:42;98408.05;;;18.89;59.49
50011;BME280;35899;50.352;19.390;2022-10-13T09:52:15;98407.50;;;19.39;58.94
50011;BME280;35899;50.352;19.390;2022-10-13T10:00:27;98393.64;;;20.84;55.78
50011;BME280;35899;50.352;19.390;2022-10-13T10:03:17;98401.61;;;21.13;53.70
50011;BME280;35899;50.352;19.390;2022-10-13T10:05:56;98393.58;;;21.56;52.13
50011;BME280;35899;50.352;19.390;2022-10-13T10:11:38;98391.99;;;22.11;49.12
50011;BME280;35899;50.352;19.390;2022-10-13T10:23:27;98380.45;;;23.33;46.22
50011;BME280;35899;50.352;19.390;2022-10-13T10:25:58;98377.55;;;23.80;45.04
50011;BME280;35899;50.352;19.390;2022-10-13T10:31:34;98370.25;;;24.68;43.01
50011;BME280;35899;50.352;19.390;2022-10-13T10:40:04;98354.31;;;26.48;40.38
50011;BME280;35899;50.352;19.390;2022-10-13T10:45:33;98361.05;;;27.12;38.75
50011;BME280;35899;50.352;19.390;2022-10-13T10:48:13;98361.00;;;27.36;37.14
50011;BME280;35899;50.352;19.390;2022-10-13T10:50:47;98357.98;;;27.82;37.06
50011;BME280;35899;50.352;19.390;2022-10-13T11:04:46;98345.89;;;29.99;33.51
50011;BME280;35899;50.352;19.390;2022-10-13T11:15:29;98333.83;;;31.30;31.87
50011;BME280;35899;50.352;19.390;2022-10-13T11:21:20;98320.94;;;32.26;31.32
50011;BME280;35899;50.352;19.390;2022-10-13T11:23:48;98323.52;;;32.21;29.92
50011;BME280;35899;50.352;19.390;2022-10-13T11:31:48;98318.86;;;32.71;29.08
50011;BME280;35899;50.352;19.390;2022-10-13T11:34:28;98318.63;;;32.90;29.02
50011;BME280;35899;50.352;19.390;2022-10-13T11:36:59;98316.13;;;33.00;28.14
50011;BME280;35899;50.352;19.390;2022-10-13T11:51:30;98295.55;;;33.81;27.29
50011;BME280;35899;50.352;19.390;2022-10-13T11:54:22;98294.16;;;34.45;27.49
50011;BME280;35899;50.352;19.390;2022-10-13T11:56:57;98296.36;;;35.08;26.23
50011;BME280;35899;50.352;19.390;2022-10-13T11:59:29;98294.96;;;35.00;25.11
50011;BME280;35899;50.352;19.390;2022-10-13T12:02:13;98290.38;;;34.71;24.72
50011;BME280;35899;50.352;19.390;2022-10-13T12:04:58;98289.23;;;34.66;24.77
50011;BME280;35899;50.352;19.390;2022-10-13T12:07:36;98289.91;;;34.52;24.93
50011;BME280;35899;50.352;19.390;2022-10-13T12:10:07;98281.70;;;34.66;25.03
50011;BME280;35899;50.352;19.390;2022-10-13T12:12:44;98275.30;;;35.04;24.61
50011;BME280;35899;50.352;19.390;2022-10-13T12:15:31;98276.04;;;34.97;24.31
50011;BME280;35899;50.352;19.390;2022-10-13T12:18:23;98269.28;;;34.92;24.37
50011;BME280;35899;50.352;19.390;2022-10-13T12:21:02;98263.59;;;34.89;24.45
50011;BME280;35899;50.352;19.390;2022-10-13T12:23:33;98269.52;;;34.88;23.99
50011;BME280;35899;50.352;19.390;2022-10-13T12:26:00;98272.53;;;34.94;23.60
50011;BME280;35899;50.352;19.390;2022-10-13T12:28:42;98270.87;;;33.48;23.88
50011;BME280;35899;50.352;19.390;2022-10-13T12:31:26;98273.94;;;31.48;24.97
50011;BME280;35899;50.352;19.390;2022-10-13T12:33:59;98269.25;;;29.77;26.60
50011;BME280;35899;50.352;19.390;2022-10-13T12:36:31;98266.86;;;28.59;27.43
50011;BME280;35899;50.352;19.390;2022-10-13T12:39:06;98264.08;;;27.60;28.32
50011;BME280;35899;50.352;19.390;2022-10-13T12:41:37;98264.61;;;26.72;28.91
50011;BME280;35899;50.352;19.390;2022-10-13T12:44:14;98268.45;;;26.12;30.07
50011;BME280;35899;50.352;19.390;2022-10-13T12:46:46;98263.34;;;25.41;31.11
50011;BME280;35899;50.352;19.390;2022-10-13T12:49:24;98257.17;;;24.84;31.65
50011;BME280;35899;50.352;19.390;2022-10-13T12:51:56;98258.13;;;24.55;32.03
50011;BME280;35899;50.352;19.390;2022-10-13T12:54:34;98255.92;;;23.96;32.62
50011;BME280;35899;50.352;19.390;2022-10-13T12:57:14;98263.06;;;23.36;32.95
50011;BME280;35899;50.352;19.390;2022-10-13T12:59:44;98256.86;;;22.87;33.40
50011;BME280;35899;50.352;19.390;2022-10-13T13:04:46;98260.25;;;22.27;35.21
50011;BME280;35899;50.352;19.390;2022-10-13T13:07:33;98262.67;;;21.97;36.07
50011;BME280;35899;50.352;19.390;2022-10-13T13:12:41;98250.53;;;21.79;37.11
50011;BME280;35899;50.352;19.390;2022-10-13T13:15:33;98249.25;;;21.71;37.26
50011;BME280;35899;50.352;19.390;2022-10-13T13:20:57;98244.72;;;21.36;37.80
50011;BME280;35899;50.352;19.390;2022-10-13T13:23:24;98235.64;;;21.35;37.86
50011;BME280;35899;50.352;19.390;2022-10-13T13:26:13;98238.11;;;21.36;37.92
50011;BME280;35899;50.352;19.390;2022-10-13T13:28:50;98228.55;;;21.31;38.83
50011;BME280;35899;50.352;19.390;2022-10-13T13:31:21;98229.70;;;21.24;39.04
50011;BME280;35899;50.352;19.390;2022-10-13T13:33:49;98225.77;;;21.16;39.34
50011;BME280;35899;50.352;19.390;2022-10-13T13:36:19;98226.30;;;20.95;39.19
50011;BME280;35899;50.352;19.390;2022-10-13T13:38:50;98218.89;;;20.74;39.06
50011;BME280;35899;50.352;19.390;2022-10-13T13:41:18;98215.05;;;20.48;39.54
50011;BME280;35899;50.352;19.390;2022-10-13T13:46:25;98215.10;;;19.89;40.12
50011;BME280;35899;50.352;19.390;2022-10-13T13:48:57;98220.06;;;19.58;41.06
50011;BME280;35899;50.352;19.390;2022-10-13T13:51:24;98219.92;;;19.29;41.50
50011;BME280;35899;50.352;19.390;2022-10-13T13:53:51;98221.89;;;19.27;41.93
50011;BME280;35899;50.352;19.390;2022-10-13T13:56:19;98216.91;;;19.20;42.19
50011;BME280;35899;50.352;19.390;2022-10-13T13:58:46;98211.53;;;19.03;42.56
50011;BME280;35899;50.352;19.390;2022-10-13T14:01:14;98212.52;;;18.80;43.26
50011;BME280;35899;50.352;19.390;2022-10-13T14:03:41;98209.52;;;18.57;43.29
50011;BME280;35899;50.352;19.390;2022-10-13T14:06:16;98209.65;;;18.33;43.60
50011;BME280;35899;50.352;19.390;2022-10-13T14:08:44;98208.66;;;18.16;44.11
50011;BME280;35899;50.352;19.390;2022-10-13T14:11:12;98207.31;;;17.98;44.22
50011;BME280;35899;50.352;19.390;2022-10-13T14:13:39;98210.28;;;17.86;44.63
50011;BME280;35899;50.352;19.390;2022-10-13T14:16:14;98210.20;;;17.82;45.06
50011;BME280;35899;50.352;19.390;2022-10-13T14:18:44;98210.02;;;17.79;45.13
50011;BME280;35899;50.352;19.390;2022-10-13T14:21:11;98210.27;;;17.72;45.60
50011;BME280;35899;50.352;19.390;2022-10-13T14:23:39;98209.82;;;17.63;45.90
50011;BME280;35899;50.352;19.390;2022-10-13T14:26:08;98212.63;;;17.51;46.61
50011;BME280;35899;50.352;19.390;2022-10-13T14:28:35;98210.14;;;17.36;46.72
50011;BME280;35899;50.352;19.390;2022-10-13T14:31:05;98210.80;;;17.24;47.19
50011;BME280;35899;50.352;19.390;2022-10-13T14:33:34;98208.16;;;17.10;47.54
50011;BME280;35899;50.352;19.390;2022-10-13T14:36:06;98203.08;;;16.99;47.94
50011;BME280;35899;50.352;19.390;2022-10-13T14:38:34;98205.37;;;16.88;48.24
50011;BME280;35899;50.352;19.390;2022-10-13T14:41:03;98202.05;;;16.76;48.72
50011;BME280;35899;50.352;19.390;2022-10-13T14:43:31;98207.73;;;16.62;48.88
50011;BME280;35899;50.352;19.390;2022-10-13T14:46:05;98213.31;;;16.53;49.33
50011;BME280;35899;50.352;19.390;2022-10-13T14:48:33;98209.03;;;16.42;49.89
50011;BME280;35899;50.352;19.390;2022-10-13T14:51:09;98200.28;;;16.28;50.41
50011;BME280;35899;50.352;19.390;2022-10-13T14:53:39;98202.34;;;16.15;50.89
50011;BME280;35899;50.352;19.390;2022-10-13T14:56:25;98216.05;;;16.03;51.08
50011;BME280;35899;50.352;19.390;2022-10-13T14:58:57;98211.33;;;15.97;51.69
50011;BME280;35899;50.352;19.390;2022-10-13T15:01:27;98210.28;;;15.84;51.88
50011;BME280;35899;50.352;19.390;2022-10-13T15:03:54;98204.17;;;15.74;52.37
50011;BME280;35899;50.352;19.390;2022-10-13T15:06:24;98204.86;;;15.60;52.75
50011;BME280;35899;50.352;19.390;2022-10-13T15:08:51;98199.03;;;15.47;52.99
50011;BME280;35899;50.352;19.390;2022-10-13T15:11:21;98210.20;;;15.34;53.32
50011;BME280;35899;50.352;19.390;2022-10-13T15:13:49;98207.54;;;15.24;53.70
50011;BME280;35899;50.352;19.390;2022-10-13T15:16:21;98210.80;;;15.16;53.92
50011;BME280;35899;50.352;19.390;2022-10-13T15:18:54;98209.33;;;15.08;54.17
50011;BME280;35899;50.352;19.390;2022-10-13T15:21:21;98204.59;;;15.02;54.27
50011;BME280;35899;50.352;19.390;2022-10-13T15:23:49;98210.13;;;14.93;54.58
50011;BME280;35899;50.352;19.390;2022-10-13T15:26:17;98203.66;;;14.82;54.95
50011;BME280;35899;50.352;19.390;2022-10-13T15:28:47;98209.88;;;14.70;55.18
50011;BME280;35899;50.352;19.390;2022-10-13T15:31:17;98203.08;;;14.57;55.50